Time;durP1;ratioP1;P1;durP2;ratioP2;P2;SDS_P1;SDS_P2;PMS_P1;PMS_P2;Temp;Humidity;BMP_temperature;BMP_pressure;BME280_temperature;BME280_humidity;BME280_pressure;Samples;Min_cycle;Max_cycle;Signal;HPM_P1;HPM_P2
2024/01/08 00:00:32;;;;;;;7.00;4.03;;;;;;;;;;4958333;29;20067;-55
2024/01/08 00:02:58;;;;;;;4.95;3.10;;;;;;;;;;4961466;29;20027;-58
2024/01/08 00:05:23;;;;;;;6.18;3.53;;;;;;;;;;4971177;29;20039;-56
2024/01/08 00:07:49;;;;;;;7.80;4.17;;;;;;;;;;4958140;29;20051;-58
2024/01/08 00:10:14;;;;;;;10.77;4.77;;;;;;;;;;4958171;29;20032;-59
2024/01/08 00:12:39;;;;;;;6.67;3.90;;;;;;;;;;4958718;29;20035;-56
2024/01/08 00:15:05;;;;;;;6.37;4.10;;;;;;;;;;4964039;29;20052;-58
2024/01/08 00:17:30;;;;;;;10.93;4.80;;;;;;;;;;4958154;29;20120;-57
2024/01/08 00:19:55;;;;;;;9.53;4.23;;;;;;;;;;4957999;29;20039;-56
2024/01/08 00:22:21;;;;;;;8.23;4.30;;;;;;;;;;4958052;29;20027;-59
2024/01/08 00:24:46;;;;;;;9.23;4.43;;;;;;;;;;4952518;29;20032;-58
2024/01/08 00:27:12;;;;;;;5.50;3.13;;;;;;;;;;4957577;29;20297;-57
2024/01/08 00:29:37;;;;;;;7.80;2.93;;;;;;;;;;4958303;29;20262;-57
2024/01/08 00:32:05;;;;;;;5.93;3.87;;;;;;;;;;4958235;29;20284;-57
2024/01/08 00:34:31;;;;;;;8.23;4.28;;;;;;;;;;4971201;29;20344;-57
2024/01/08 00:36:56;;;;;;;8.43;4.30;;;;;;;;;;4971098;29;20035;-58
2024/01/08 00:39:23;;;;;;;7.85;4.22;;;;;;;;;;4957862;29;20036;-57
2024/01/08 00:41:48;;;;;;;9.40;4.80;;;;;;;;;;4957654;29;20028;-58
2024/01/08 00:44:14;;;;;;;6.65;4.05;;;;;;;;;;4960528;29;20046;-59
2024/01/08 00:46:39;;;;;;;7.30;4.10;;;;;;;;;;4966647;29;20051;-58
2024/01/08 00:49:04;;;;;;;9.23;2.93;;;;;;;;;;4957940;29;20039;-52
2024/01/08 00:51:31;;;;;;;9.65;4.53;;;;;;;;;;4957541;29;20124;-55
2024/01/08 00:53:56;;;;;;;5.37;3.67;;;;;;;;;;4965838;29;20039;-54
2024/01/08 00:56:22;;;;;;;6.63;3.45;;;;;;;;;;4957953;29;20361;-55
2024/01/08 00:58:48;;;;;;;7.20;4.23;;;;;;;;;;4957669;29;20039;-57
2024/01/08 01:01:14;;;;;;;7.53;4.27;;;;;;;;;;4957414;29;20254;-54
2024/01/08 01:03:40;;;;;;;9.27;4.70;;;;;;;;;;4963655;29;20260;-58
2024/01/08 01:06:06;;;;;;;6.90;3.85;;;;;;;;;;4967203;29;20039;-59
2024/01/08 01:08:31;;;;;;;5.77;3.77;;;;;;;;;;4957573;29;20044;-58
2024/01/08 01:10:57;;;;;;;8.05;4.68;;;;;;;;;;4957242;29;20043;-57
2024/01/08 01:13:23;;;;;;;8.05;4.45;;;;;;;;;;4962033;29;20046;-55
2024/01/08 01:15:48;;;;;;;5.10;3.53;;;;;;;;;;4963745;29;20043;-60
2024/01/08 01:18:14;;;;;;;6.20;3.40;;;;;;;;;;4957299;29;20055;-59
2024/01/08 01:20:39;;;;;;;8.23;3.60;;;;;;;;;;4957262;29;20290;-57
2024/01/08 01:23:05;;;;;;;5.17;3.30;;;;;;;;;;4956928;29;20276;-59
2024/01/08 01:25:30;;;;;;;10.63;4.63;;;;;;;;;;4960294;29;20039;-58
2024/01/08 01:27:55;;;;;;;8.03;4.70;;;;;;;;;;4956659;29;20043;-58
2024/01/08 01:30:21;;;;;;;16.73;4.35;;;;;;;;;;4956634;29;20099;-58
2024/01/08 01:32:46;;;;;;;6.68;3.85;;;;;;;;;;4956869;29;20035;-58
2024/01/08 01:35:12;;;;;;;5.75;3.60;;;;;;;;;;4958247;29;20044;-58
2024/01/08 01:37:38;;;;;;;11.63;4.82;;;;;;;;;;4958345;29;20039;-56
2024/01/08 01:40:04;;;;;;;8.43;4.68;;;;;;;;;;4957279;29;20032;-59
2024/01/08 01:42:30;;;;;;;6.97;4.53;;;;;;;;;;4957157;29;20036;-58
2024/01/08 01:44:55;;;;;;;7.93;4.55;;;;;;;;;;4963304;29;20035;-57
2024/01/08 01:47:22;;;;;;;11.35;4.35;;;;;;;;;;4962483;29;20070;-59
2024/01/08 01:49:50;;;;;;;5.90;3.72;;;;;;;;;;4956972;29;20087;-59
2024/01/08 01:52:16;;;;;;;6.93;4.10;;;;;;;;;;4956679;29;20043;-59
2024/01/08 01:54:41;;;;;;;7.85;4.28;;;;;;;;;;4961940;29;20059;-57
2024/01/08 01:57:06;;;;;;;6.93;3.95;;;;;;;;;;4959776;29;20044;-59
2024/01/08 01:59:33;;;;;;;8.32;4.28;;;;;;;;;;4964206;29;20052;-57
2024/01/08 02:01:59;;;;;;;9.93;5.00;;;;;;;;;;4956752;29;20039;-59
2024/01/08 02:04:28;;;;;;;8.20;4.20;;;;;;;;;;4961048;29;20028;-57
2024/01/08 02:06:54;;;;;;;9.68;3.83;;;;;;;;;;4966135;29;20031;-58
2024/01/08 02:09:20;;;;;;;7.93;4.03;;;;;;;;;;4960783;29;20036;-57
2024/01/08 02:11:45;;;;;;;11.05;4.50;;;;;;;;;;4956715;29;20036;-60
2024/01/08 02:14:12;;;;;;;11.10;5.10;;;;;;;;;;4958509;29;20132;-59
2024/01/08 02:16:38;;;;;;;7.88;4.70;;;;;;;;;;4957509;29;20035;-55
2024/01/08 02:19:03;;;;;;;7.78;3.88;;;;;;;;;;4956457;29;20075;-59
2024/01/08 02:21:29;;;;;;;23.70;5.90;;;;;;;;;;4968328;28;20035;-58
2024/01/08 02:23:54;;;;;;;5.18;3.50;;;;;;;;;;4963455;29;20262;-58
2024/01/08 02:26:21;;;;;;;10.30;4.30;;;;;;;;;;4960555;29;20106;-59
2024/01/08 02:28:47;;;;;;;8.23;3.83;;;;;;;;;;4968363;29;20027;-59
2024/01/08 02:31:12;;;;;;;12.32;4.30;;;;;;;;;;4962018;29;20036;-58
2024/01/08 02:33:38;;;;;;;8.88;4.60;;;;;;;;;;4972833;29;20036;-59
2024/01/08 02:36:04;;;;;;;7.03;4.00;;;;;;;;;;4975282;29;20071;-59
2024/01/08 02:38:29;;;;;;;11.80;4.83;;;;;;;;;;4969217;29;20117;-60
2024/01/08 02:40:57;;;;;;;8.73;3.60;;;;;;;;;;4974309;29;20031;-60
2024/01/08 02:43:23;;;;;;;10.65;5.10;;;;;;;;;;4968673;29;20093;-57
2024/01/08 02:45:48;;;;;;;9.68;4.50;;;;;;;;;;4975454;29;20035;-58
2024/01/08 02:48:13;;;;;;;8.10;3.13;;;;;;;;;;4970757;29;20082;-59
2024/01/08 02:50:39;;;;;;;10.80;4.77;;;;;;;;;;4970534;29;20036;-60
2024/01/08 02:53:04;;;;;;;6.67;3.53;;;;;;;;;;4965601;29;20019;-61
2024/01/08 02:55:29;;;;;;;12.90;4.50;;;;;;;;;;4968370;29;20038;-59
2024/01/08 02:57:55;;;;;;;12.63;5.10;;;;;;;;;;4969690;29;20051;-58
2024/01/08 03:00:20;;;;;;;7.87;3.97;;;;;;;;;;4969328;29;20096;-59
2024/01/08 03:02:45;;;;;;;17.87;5.63;;;;;;;;;;4972019;29;20034;-59
2024/01/08 03:05:11;;;;;;;8.10;4.03;;;;;;;;;;4977792;29;20035;-59
2024/01/08 03:07:36;;;;;;;10.48;5.05;;;;;;;;;;4969212;29;20032;-56
2024/01/08 03:10:03;;;;;;;9.13;5.00;;;;;;;;;;4978508;29;20039;-59
2024/01/08 03:12:28;;;;;;;10.38;5.80;;;;;;;;;;4960910;29;20071;-58
2024/01/08 03:14:53;;;;;;;10.43;4.93;;;;;;;;;;4965226;29;20039;-58
2024/01/08 03:17:19;;;;;;;9.67;4.43;;;;;;;;;;4963209;29;20035;-59
2024/01/08 03:19:45;;;;;;;11.45;5.10;;;;;;;;;;4961541;29;20031;-59
2024/01/08 03:22:10;;;;;;;12.15;5.35;;;;;;;;;;4959454;29;20038;-59
2024/01/08 03:24:38;;;;;;;10.07;4.88;;;;;;;;;;4965771;29;20066;-59
2024/01/08 03:27:04;;;;;;;12.48;4.75;;;;;;;;;;4961917;29;20056;-55
2024/01/08 03:29:30;;;;;;;9.77;4.90;;;;;;;;;;4959363;29;20028;-58
2024/01/08 03:31:55;;;;;;;6.90;3.58;;;;;;;;;;4958983;29;20034;-59
2024/01/08 03:34:20;;;;;;;8.10;4.13;;;;;;;;;;4945821;29;20038;-61
2024/01/08 03:36:46;;;;;;;12.77;5.32;;;;;;;;;;4962798;29;20032;-58
2024/01/08 03:39:13;;;;;;;10.23;5.05;;;;;;;;;;4967406;29;20047;-60
2024/01/08 03:41:39;;;;;;;10.38;5.40;;;;;;;;;;4958837;29;20047;-58
2024/01/08 03:44:06;;;;;;;11.15;4.80;;;;;;;;;;4960428;29;20035;-59
2024/01/08 03:46:31;;;;;;;10.60;4.95;;;;;;;;;;4961030;29;20059;-59
2024/01/08 03:48:57;;;;;;;11.80;5.20;;;;;;;;;;4964846;29;20041;-59
2024/01/08 03:51:23;;;;;;;6.63;3.17;;;;;;;;;;4967757;29;20067;-58
2024/01/08 03:53:48;;;;;;;10.20;4.93;;;;;;;;;;4958583;29;20054;-59
2024/01/08 03:56:13;;;;;;;11.70;5.60;;;;;;;;;;4960490;29;20043;-60
2024/01/08 03:58:39;;;;;;;8.35;4.82;;;;;;;;;;4971441;29;20065;-60
2024/01/08 04:01:04;;;;;;;7.53;3.87;;;;;;;;;;4963779;29;20031;-58
2024/01/08 04:03:30;;;;;;;10.75;4.85;;;;;;;;;;4960591;29;20035;-57
2024/01/08 04:05:56;;;;;;;9.93;4.50;;;;;;;;;;4967433;29;20039;-60
2024/01/08 04:08:21;;;;;;;8.83;3.70;;;;;;;;;;4964589;29;20063;-55
2024/01/08 04:10:47;;;;;;;9.20;4.20;;;;;;;;;;4959687;29;20067;-55
2024/01/08 04:13:12;;;;;;;9.13;3.85;;;;;;;;;;4958502;29;20038;-56
2024/01/08 04:15:38;;;;;;;9.20;4.60;;;;;;;;;;4958917;29;20040;-59
2024/01/08 04:18:04;;;;;;;9.77;4.85;;;;;;;;;;4967283;29;20087;-60
2024/01/08 04:20:29;;;;;;;11.67;5.17;;;;;;;;;;4958374;29;20064;-59
2024/01/08 04:22:55;;;;;;;8.40;4.27;;;;;;;;;;4961663;29;20315;-59
2024/01/08 04:25:20;;;;;;;10.63;3.90;;;;;;;;;;4957988;29;20285;-59
2024/01/08 04:27:46;;;;;;;8.88;4.13;;;;;;;;;;4957765;29;20033;-60
2024/01/08 04:30:11;;;;;;;7.90;3.80;;;;;;;;;;4957811;29;20031;-60
2024/01/08 04:32:37;;;;;;;8.33;4.13;;;;;;;;;;4965179;29;20570;-60
2024/01/08 04:35:03;;;;;;;11.48;5.43;;;;;;;;;;4960599;29;20258;-59
2024/01/08 04:37:29;;;;;;;8.75;5.00;;;;;;;;;;4971369;29;20063;-60
2024/01/08 04:39:54;;;;;;;11.43;5.33;;;;;;;;;;4957649;29;20031;-59
2024/01/08 04:42:20;;;;;;;10.25;5.25;;;;;;;;;;4961232;29;20114;-59
2024/01/08 04:44:48;;;;;;;9.77;4.83;;;;;;;;;;4957305;29;20038;-60
2024/01/08 04:47:14;;;;;;;11.35;6.05;;;;;;;;;;4967260;29;20293;-59
2024/01/08 04:49:40;;;;;;;11.02;5.28;;;;;;;;;;4959784;29;20031;-60
2024/01/08 04:52:05;;;;;;;11.50;4.95;;;;;;;;;;4959203;29;20087;-59
2024/01/08 04:54:30;;;;;;;9.13;4.93;;;;;;;;;;4959265;29;20031;-57
2024/01/08 04:56:56;;;;;;;10.48;4.82;;;;;;;;;;4961059;29;20111;-59
2024/01/08 04:59:23;;;;;;;13.40;5.57;;;;;;;;;;4951016;29;20035;-57
2024/01/08 05:01:49;;;;;;;11.80;5.05;;;;;;;;;;4966598;29;20079;-59
2024/01/08 05:04:15;;;;;;;10.55;5.18;;;;;;;;;;4959891;29;20039;-57
2024/01/08 05:06:40;;;;;;;8.77;4.03;;;;;;;;;;4959437;29;20103;-60
2024/01/08 05:09:05;;;;;;;10.77;5.07;;;;;;;;;;4962217;29;20293;-61
2024/01/08 05:11:30;;;;;;;12.00;5.80;;;;;;;;;;4961007;29;20027;-59
2024/01/08 05:13:56;;;;;;;10.43;5.37;;;;;;;;;;4960157;29;20032;-59
2024/01/08 05:16:21;;;;;;;11.85;5.18;;;;;;;;;;4965514;29;20066;-60
2024/01/08 05:18:47;;;;;;;8.73;4.50;;;;;;;;;;4957805;29;20028;-59
2024/01/08 05:21:13;;;;;;;23.60;7.35;;;;;;;;;;4957146;29;20024;-60
2024/01/08 05:23:38;;;;;;;11.98;4.80;;;;;;;;;;4960350;29;20095;-59
2024/01/08 05:26:04;;;;;;;12.95;5.70;;;;;;;;;;4956508;29;20024;-58
2024/01/08 05:28:29;;;;;;;8.73;5.33;;;;;;;;;;4958112;29;20044;-58
2024/01/08 05:30:55;;;;;;;11.55;6.05;;;;;;;;;;4956509;29;20091;-59
2024/01/08 05:33:21;;;;;;;11.60;5.60;;;;;;;;;;4956505;29;20062;-60
2024/01/08 05:35:46;;;;;;;9.38;3.80;;;;;;;;;;4963921;29;20044;-60
2024/01/08 05:38:12;;;;;;;10.23;5.40;;;;;;;;;;4959537;29;20031;-57
2024/01/08 05:40:37;;;;;;;12.38;5.22;;;;;;;;;;4956620;29;20032;-60
2024/01/08 05:43:03;;;;;;;12.10;6.43;;;;;;;;;;4944974;29;20043;-59
2024/01/08 05:45:29;;;;;;;13.45;6.32;;;;;;;;;;4956674;29;20068;-58
2024/01/08 05:47:54;;;;;;;15.13;6.97;;;;;;;;;;4960028;29;20040;-59
2024/01/08 05:50:20;;;;;;;15.30;6.38;;;;;;;;;;4969617;29;20043;-59
2024/01/08 05:52:46;;;;;;;18.87;5.47;;;;;;;;;;4963966;29;20055;-57
2024/01/08 05:55:14;;;;;;;14.93;6.83;;;;;;;;;;4945153;29;20266;-59
2024/01/08 05:57:40;;;;;;;12.23;6.13;;;;;;;;;;4959382;29;20286;-58
2024/01/08 06:00:05;;;;;;;10.57;4.90;;;;;;;;;;4967070;29;20079;-58
2024/01/08 06:02:31;;;;;;;15.13;6.38;;;;;;;;;;4965692;29;20047;-59
2024/01/08 06:04:57;;;;;;;13.75;6.28;;;;;;;;;;4960402;29;20028;-60
2024/01/08 06:07:22;;;;;;;12.10;5.63;;;;;;;;;;4970997;29;20042;-60
2024/01/08 06:09:47;;;;;;;15.40;6.43;;;;;;;;;;4968950;29;20064;-60
2024/01/08 06:12:13;;;;;;;11.40;6.22;;;;;;;;;;4960471;29;20042;-59
2024/01/08 06:14:41;;;;;;;7.72;4.38;;;;;;;;;;4960072;29;20050;-59
2024/01/08 06:17:08;;;;;;;15.05;6.03;;;;;;;;;;4967590;29;20035;-58
2024/01/08 06:19:33;;;;;;;13.18;6.90;;;;;;;;;;4965090;29;20043;-59
2024/01/08 06:21:59;;;;;;;12.83;6.13;;;;;;;;;;4960072;29;20039;-58
2024/01/08 06:24:24;;;;;;;17.80;6.03;;;;;;;;;;4958315;29;20031;-59
2024/01/08 06:26:50;;;;;;;14.23;6.80;;;;;;;;;;4958866;29;20031;-60
2024/01/08 06:29:16;;;;;;;12.85;6.07;;;;;;;;;;4947855;29;20035;-60
2024/01/08 06:31:41;;;;;;;13.00;5.88;;;;;;;;;;4963565;29;20036;-60
2024/01/08 06:34:07;;;;;;;12.10;6.27;;;;;;;;;;4960135;29;20040;-60
2024/01/08 06:36:34;;;;;;;14.73;5.70;;;;;;;;;;4958955;29;20047;-59
2024/01/08 06:38:59;;;;;;;14.90;6.70;;;;;;;;;;4961633;29;20020;-60
2024/01/08 06:41:25;;;;;;;13.18;5.72;;;;;;;;;;4963019;29;20024;-61
2024/01/08 06:43:51;;;;;;;12.82;6.32;;;;;;;;;;4963492;29;20233;-60
2024/01/08 06:46:17;;;;;;;15.53;5.90;;;;;;;;;;4959751;29;20047;-62
2024/01/08 06:48:42;;;;;;;14.93;5.30;;;;;;;;;;4963885;29;20035;-60
2024/01/08 06:51:08;;;;;;;12.00;6.25;;;;;;;;;;4960543;29;20063;-61
2024/01/08 06:53:33;;;;;;;17.73;6.73;;;;;;;;;;4969013;29;20040;-61
2024/01/08 06:55:58;;;;;;;17.67;6.13;;;;;;;;;;4957741;29;21308;-61
2024/01/08 06:58:24;;;;;;;18.30;6.37;;;;;;;;;;4963944;29;20035;-61
2024/01/08 07:00:49;;;;;;;10.38;4.68;;;;;;;;;;4943925;29;20031;-60
2024/01/08 07:03:15;;;;;;;7.75;4.40;;;;;;;;;;4968317;29;20032;-60
2024/01/08 07:05:41;;;;;;;15.10;6.97;;;;;;;;;;4960849;29;20035;-61
2024/01/08 07:08:07;;;;;;;13.15;6.43;;;;;;;;;;4959212;29;20078;-59
2024/01/08 07:10:34;;;;;;;12.80;6.55;;;;;;;;;;4958830;29;20059;-61
2024/01/08 07:12:59;;;;;;;19.00;6.68;;;;;;;;;;4960061;29;20063;-61
2024/01/08 07:15:40;;;;;;;17.27;7.97;;;;;;;;;;4957819;29;20046;-60
2024/01/08 07:18:08;;;;;;;15.13;6.28;;;;;;;;;;4959337;29;20039;-60
2024/01/08 07:20:34;;;;;;;11.85;5.10;;;;;;;;;;4961813;29;20067;-60
2024/01/08 07:22:59;;;;;;;12.82;5.53;;;;;;;;;;4976392;29;20083;-59
2024/01/08 07:25:25;;;;;;;11.93;6.00;;;;;;;;;;4957148;29;20095;-60
2024/01/08 07:27:51;;;;;;;16.48;6.55;;;;;;;;;;4962833;29;20032;-61
2024/01/08 07:30:17;;;;;;;14.07;6.50;;;;;;;;;;4958796;29;20035;-61
2024/01/08 07:32:42;;;;;;;14.30;6.22;;;;;;;;;;4950056;29;20036;-59
2024/01/08 07:35:08;;;;;;;13.07;6.00;;;;;;;;;;4957916;29;20028;-58
2024/01/08 07:37:33;;;;;;;14.17;6.37;;;;;;;;;;4959738;29;20282;-61
2024/01/08 07:39:58;;;;;;;13.90;6.40;;;;;;;;;;4960316;29;20035;-60
2024/01/08 07:42:23;;;;;;;13.33;5.57;;;;;;;;;;4965946;29;20024;-57
2024/01/08 07:44:49;;;;;;;14.47;6.33;;;;;;;;;;4962154;29;20030;-62
2024/01/08 07:47:15;;;;;;;13.70;6.40;;;;;;;;;;4965775;29;20266;-59
2024/01/08 07:49:40;;;;;;;11.63;5.40;;;;;;;;;;4960201;29;20274;-59
2024/01/08 07:52:06;;;;;;;14.70;6.67;;;;;;;;;;4965448;29;20090;-60
2024/01/08 07:54:31;;;;;;;13.37;5.70;;;;;;;;;;4923300;29;1025049;-60
2024/01/08 07:56:56;;;;;;;15.40;7.20;;;;;;;;;;4965076;29;20063;-57
2024/01/08 07:59:21;;;;;;;12.93;5.57;;;;;;;;;;4966934;29;20047;-59
2024/01/08 08:01:47;;;;;;;11.45;6.18;;;;;;;;;;4962083;29;20027;-60
2024/01/08 08:04:13;;;;;;;11.13;6.17;;;;;;;;;;4963633;29;20081;-61
2024/01/08 08:06:39;;;;;;;14.70;5.88;;;;;;;;;;4963249;29;20296;-60
2024/01/08 08:09:05;;;;;;;12.67;5.60;;;;;;;;;;4958932;29;20036;-60
2024/01/08 08:11:30;;;;;;;13.87;5.83;;;;;;;;;;4964260;29;20038;-59
2024/01/08 08:13:56;;;;;;;13.03;7.40;;;;;;;;;;4963921;29;20269;-58
2024/01/08 08:16:22;;;;;;;12.35;5.88;;;;;;;;;;4962683;29;20050;-59
2024/01/08 08:18:48;;;;;;;12.87;4.70;;;;;;;;;;4968359;28;20047;-59
2024/01/08 08:21:13;;;;;;;10.95;6.43;;;;;;;;;;4957872;28;20031;-60
2024/01/08 08:23:39;;;;;;;11.82;5.75;;;;;;;;;;4971191;29;20042;-61
2024/01/08 08:26:04;;;;;;;13.03;4.63;;;;;;;;;;4975858;29;20063;-60
2024/01/08 08:28:30;;;;;;;9.73;4.50;;;;;;;;;;4962652;29;20309;-60
2024/01/08 08:30:55;;;;;;;12.80;6.28;;;;;;;;;;4964668;29;20035;-58
2024/01/08 08:33:21;;;;;;;14.63;6.10;;;;;;;;;;4961823;29;20054;-61
2024/01/08 08:35:46;;;;;;;9.70;5.23;;;;;;;;;;4963479;29;20062;-60
2024/01/08 08:38:12;;;;;;;9.10;4.60;;;;;;;;;;4971360;29;20261;-57
2024/01/08 08:40:38;;;;;;;11.15;5.28;;;;;;;;;;4962730;29;20257;-60
2024/01/08 08:43:05;;;;;;;9.50;4.63;;;;;;;;;;4974461;29;20044;-57
2024/01/08 08:45:32;;;;;;;8.90;4.82;;;;;;;;;;4964288;29;20046;-59
2024/01/08 08:47:58;;;;;;;7.13;3.80;;;;;;;;;;4961323;29;20031;-58
2024/01/08 08:50:24;;;;;;;10.98;5.78;;;;;;;;;;4965558;29;20285;-60
2024/01/08 08:52:49;;;;;;;12.00;5.60;;;;;;;;;;4960811;29;20144;-61
2024/01/08 08:55:15;;;;;;;7.82;4.40;;;;;;;;;;4958789;29;20131;-61
2024/01/08 08:57:41;;;;;;;9.27;4.68;;;;;;;;;;4961138;29;20079;-58
2024/01/08 09:00:09;;;;;;;8.15;4.53;;;;;;;;;;4961524;29;20135;-60
2024/01/08 09:02:35;;;;;;;8.20;4.53;;;;;;;;;;4959331;29;20034;-60
2024/01/08 09:05:00;;;;;;;8.30;4.53;;;;;;;;;;4957487;29;20028;-59
2024/01/08 09:07:26;;;;;;;11.68;4.45;;;;;;;;;;4957191;29;20143;-58
2024/01/08 09:09:52;;;;;;;7.22;3.65;;;;;;;;;;4959058;29;20043;-62
2024/01/08 09:12:18;;;;;;;9.15;4.75;;;;;;;;;;4957344;29;20054;-59
2024/01/08 09:14:44;;;;;;;10.80;4.97;;;;;;;;;;4960262;29;20063;-60
2024/01/08 09:17:10;;;;;;;12.50;5.00;;;;;;;;;;4955735;29;20286;-58
2024/01/08 09:19:36;;;;;;;8.60;4.97;;;;;;;;;;4965104;29;20334;-59
2024/01/08 09:22:01;;;;;;;8.87;4.20;;;;;;;;;;4968102;29;20072;-61
2024/01/08 09:24:26;;;;;;;7.77;4.70;;;;;;;;;;4957199;29;20095;-59
2024/01/08 09:26:52;;;;;;;10.13;4.97;;;;;;;;;;4971148;29;20039;-60
2024/01/08 09:29:18;;;;;;;9.63;5.60;;;;;;;;;;4961261;29;20038;-59
2024/01/08 09:31:44;;;;;;;12.88;6.57;;;;;;;;;;4970053;28;20043;-59
2024/01/08 09:34:10;;;;;;;8.83;5.03;;;;;;;;;;4956950;29;20036;-61
2024/01/08 09:36:36;;;;;;;8.40;4.47;;;;;;;;;;4963599;29;20373;-60
2024/01/08 09:39:02;;;;;;;12.43;4.97;;;;;;;;;;4958347;29;20044;-60
2024/01/08 09:41:28;;;;;;;10.32;5.20;;;;;;;;;;4949263;29;20028;-59
2024/01/08 09:43:54;;;;;;;11.40;5.80;;;;;;;;;;4944354;29;20073;-61
2024/01/08 09:46:27;;;;;;;14.73;6.30;;;;;;;;;;4967924;29;20297;-60
2024/01/08 09:48:55;;;;;;;12.52;6.35;;;;;;;;;;4957310;29;20035;-60
2024/01/08 09:51:21;;;;;;;11.45;6.22;;;;;;;;;;4955507;29;20034;-60
2024/01/08 09:53:48;;;;;;;11.32;6.22;;;;;;;;;;4957106;29;20031;-59
2024/01/08 09:56:15;;;;;;;30.42;7.53;;;;;;;;;;4966477;29;20050;-60
2024/01/08 09:58:40;;;;;;;;;;;;;;;;;;4967566;29;20023;-60
2024/01/08 10:01:05;;;;;;;8.63;4.60;;;;;;;;;;4967820;29;19929;-61
2024/01/08 10:03:30;;;;;;;12.87;5.63;;;;;;;;;;4970790;29;20032;-60
2024/01/08 10:05:56;;;;;;;9.67;5.80;;;;;;;;;;4964490;29;20042;-58
2024/01/08 10:08:21;;;;;;;7.82;4.47;;;;;;;;;;4956560;29;20039;-58
2024/01/08 10:10:47;;;;;;;7.15;3.97;;;;;;;;;;4962383;29;20046;-61
2024/01/08 10:13:14;;;;;;;16.50;6.47;;;;;;;;;;4951835;29;20068;-60
2024/01/08 10:15:45;;;;;;;9.32;5.25;;;;;;;;;;4955389;29;20043;-60
2024/01/08 10:18:13;;;;;;;7.55;4.22;;;;;;;;;;4950482;29;20024;-60
2024/01/08 10:20:39;;;;;;;9.43;4.25;;;;;;;;;;4958462;29;20055;-59
2024/01/08 10:23:06;;;;;;;4.60;2.83;;;;;;;;;;4939424;29;20060;-60
2024/01/08 10:25:32;;;;;;;7.57;4.20;;;;;;;;;;4957515;29;20052;-58
2024/01/08 10:27:57;;;;;;;14.77;5.72;;;;;;;;;;4961376;29;20055;-61
2024/01/08 10:30:23;;;;;;;9.93;5.20;;;;;;;;;;4956174;29;20056;-61
2024/01/08 10:32:49;;;;;;;10.63;5.05;;;;;;;;;;4960068;29;20036;-58
2024/01/08 10:35:15;;;;;;;11.20;4.60;;;;;;;;;;4956409;29;20040;-57
2024/01/08 10:37:41;;;;;;;10.07;5.55;;;;;;;;;;4957361;29;20032;-61
2024/01/08 10:40:09;;;;;;;10.93;4.63;;;;;;;;;;4958429;29;20050;-59
2024/01/08 10:42:35;;;;;;;7.50;4.68;;;;;;;;;;4959486;29;20027;-59
2024/01/08 10:45:00;;;;;;;9.35;4.90;;;;;;;;;;4959257;29;20032;-59
2024/01/08 10:47:28;;;;;;;12.97;5.87;;;;;;;;;;4959706;29;20074;-61
2024/01/08 10:49:56;;;;;;;15.07;5.25;;;;;;;;;;4962416;29;20040;-60
2024/01/08 10:52:28;;;;;;;9.13;5.28;;;;;;;;;;4961551;29;20036;-61
2024/01/08 10:54:57;;;;;;;11.27;5.97;;;;;;;;;;4964219;29;20032;-63
2024/01/08 10:57:43;;;;;;;15.77;5.53;;;;;;;;;;4963402;29;20036;-61
2024/01/08 11:00:12;;;;;;;12.65;6.20;;;;;;;;;;4965732;29;20053;-61
2024/01/08 11:02:42;;;;;;;17.17;6.68;;;;;;;;;;4952531;28;20028;-60
2024/01/08 11:05:13;;;;;;;9.13;5.32;;;;;;;;;;4959488;29;20042;-61
2024/01/08 11:07:40;;;;;;;11.57;5.03;;;;;;;;;;4959111;29;20040;-61
2024/01/08 11:10:09;;;;;;;11.85;5.65;;;;;;;;;;4961551;29;20047;-61
2024/01/08 11:12:41;;;;;;;13.15;6.05;;;;;;;;;;4949525;29;20058;-60
2024/01/08 11:15:06;;;;;;;12.98;5.95;;;;;;;;;;4959140;29;20035;-60
2024/01/08 11:17:32;;;;;;;13.18;5.10;;;;;;;;;;4969095;29;20100;-62
2024/01/08 11:19:59;;;;;;;14.07;7.13;;;;;;;;;;4960389;29;20054;-61
2024/01/08 11:22:24;;;;;;;;;;;;;;;;;;4966918;29;20657;-62
2024/01/08 11:24:50;;;;;;;13.50;5.60;;;;;;;;;;4958413;29;19910;-63
2024/01/08 11:27:16;;;;;;;10.27;4.63;;;;;;;;;;4959796;29;20039;-61
2024/01/08 11:29:41;;;;;;;;;;;;;;;;;;4941954;29;20047;-62
2024/01/08 11:32:36;;;;;;;5.25;3.55;;;;;;;;;;4966190;29;19911;-64
2024/01/08 11:35:03;;;;;;;7.07;4.30;;;;;;;;;;4944688;29;20042;-60
2024/01/08 11:37:29;;;;;;;9.82;4.55;;;;;;;;;;4966591;29;20043;-59
2024/01/08 11:39:55;;;;;;;10.07;4.70;;;;;;;;;;4960815;29;20035;-60
2024/01/08 11:42:21;;;;;;;8.30;4.57;;;;;;;;;;4967126;29;20044;-59
2024/01/08 11:44:49;;;;;;;9.65;4.63;;;;;;;;;;4959886;29;20091;-61
2024/01/08 11:47:15;;;;;;;7.97;4.97;;;;;;;;;;4964730;29;20032;-59
2024/01/08 11:49:40;;;;;;;6.97;4.10;;;;;;;;;;4959054;29;20036;-59
2024/01/08 11:52:07;;;;;;;8.33;4.13;;;;;;;;;;4962633;29;20277;-61
2024/01/08 11:54:33;;;;;;;9.25;5.00;;;;;;;;;;4958844;29;20040;-61
2024/01/08 11:56:58;;;;;;;10.37;5.23;;;;;;;;;;4959466;29;20132;-61
2024/01/08 11:59:30;;;;;;;9.33;4.13;;;;;;;;;;4958999;29;20059;-61
2024/01/08 12:02:06;;;;;;;5.55;3.30;;;;;;;;;;4959657;29;20043;-60
2024/01/08 12:04:31;;;;;;;7.05;3.42;;;;;;;;;;4958188;29;20051;-59
2024/01/08 12:06:56;;;;;;;8.03;4.10;;;;;;;;;;4957924;29;20035;-61
2024/01/08 12:09:22;;;;;;;5.22;3.25;;;;;;;;;;4955526;29;20131;-60
2024/01/08 12:12:00;;;;;;;7.17;4.23;;;;;;;;;;4965758;29;20059;-61
2024/01/08 12:14:27;;;;;;;8.05;3.90;;;;;;;;;;4952010;29;20038;-59
2024/01/08 12:16:52;;;;;;;7.43;3.58;;;;;;;;;;4956898;29;20044;-61
2024/01/08 12:19:18;;;;;;;6.60;3.40;;;;;;;;;;4964358;29;20092;-59
2024/01/08 12:21:43;;;;;;;7.87;3.80;;;;;;;;;;4965157;29;20035;-59
2024/01/08 12:24:09;;;;;;;7.20;3.50;;;;;;;;;;4963474;29;20060;-60
2024/01/08 12:26:35;;;;;;;7.72;3.83;;;;;;;;;;4957759;29;20273;-61
2024/01/08 12:29:00;;;;;;;6.20;3.37;;;;;;;;;;4957717;29;20040;-60
2024/01/08 12:31:31;;;;;;;6.68;3.65;;;;;;;;;;4961720;29;20036;-59
2024/01/08 12:33:57;;;;;;;6.60;3.05;;;;;;;;;;4958155;29;20035;-61
2024/01/08 12:36:22;;;;;;;6.10;3.23;;;;;;;;;;4957205;29;20047;-61
2024/01/08 12:38:48;;;;;;;4.73;2.57;;;;;;;;;;4957213;29;20088;-60
2024/01/08 12:41:13;;;;;;;5.47;2.73;;;;;;;;;;4959717;29;20270;-61
2024/01/08 12:43:39;;;;;;;6.85;2.65;;;;;;;;;;4958213;29;20087;-61
2024/01/08 12:46:05;;;;;;;6.60;2.80;;;;;;;;;;4957031;29;20032;-62
2024/01/08 12:48:34;;;;;;;5.68;2.67;;;;;;;;;;4957529;29;20092;-61
2024/01/08 12:51:18;;;;;;;4.33;2.50;;;;;;;;;;4959482;29;20046;-61
2024/01/08 12:53:44;;;;;;;6.07;3.30;;;;;;;;;;4956729;29;20266;-61
2024/01/08 12:56:09;;;;;;;7.20;2.83;;;;;;;;;;4958733;29;20286;-60
2024/01/08 12:58:35;;;;;;;6.25;3.17;;;;;;;;;;4956851;29;20519;-60
2024/01/08 13:01:00;;;;;;;4.47;2.60;;;;;;;;;;4956578;29;20095;-61
2024/01/08 13:03:25;;;;;;;5.77;2.73;;;;;;;;;;4965574;29;20039;-61
2024/01/08 13:05:51;;;;;;;12.13;2.77;;;;;;;;;;4957320;29;20050;-59
2024/01/08 13:08:16;;;;;;;5.05;2.65;;;;;;;;;;4967484;29;20039;-59
2024/01/08 13:10:41;;;;;;;4.23;3.00;;;;;;;;;;4961911;29;20040;-60
2024/01/08 13:13:07;;;;;;;7.10;2.80;;;;;;;;;;4963122;29;20034;-60
2024/01/08 13:15:32;;;;;;;4.37;2.33;;;;;;;;;;4958415;29;20039;-58
2024/01/08 13:17:57;;;;;;;6.60;2.80;;;;;;;;;;4941728;29;20076;-58
2024/01/08 13:20:23;;;;;;;5.37;2.10;;;;;;;;;;4958102;29;20075;-59
2024/01/08 13:22:48;;;;;;;5.93;2.57;;;;;;;;;;4960230;29;20043;-60
2024/01/08 13:25:13;;;;;;;4.50;2.67;;;;;;;;;;4961756;29;20042;-59
2024/01/08 13:27:39;;;;;;;4.47;2.40;;;;;;;;;;4964750;29;20035;-58
2024/01/08 13:30:05;;;;;;;5.27;2.80;;;;;;;;;;4957112;29;20266;-58
2024/01/08 13:32:30;;;;;;;4.05;2.25;;;;;;;;;;4965417;29;20047;-59
2024/01/08 13:34:56;;;;;;;4.93;2.05;;;;;;;;;;4958566;29;20424;-59
2024/01/08 13:37:21;;;;;;;4.00;2.45;;;;;;;;;;4939136;29;20058;-58
2024/01/08 13:39:47;;;;;;;6.40;3.20;;;;;;;;;;4959818;29;20083;-56
2024/01/08 13:42:17;;;;;;;4.72;3.00;;;;;;;;;;4959853;29;20039;-60
2024/01/08 13:44:43;;;;;;;6.43;3.60;;;;;;;;;;4956283;29;20099;-59
2024/01/08 13:47:08;;;;;;;4.07;2.90;;;;;;;;;;4956551;29;20120;-59
2024/01/08 13:49:33;;;;;;;4.13;2.37;;;;;;;;;;4964765;29;20063;-59
2024/01/08 13:51:58;;;;;;;8.20;2.77;;;;;;;;;;4959793;29;20039;-59
2024/01/08 13:54:24;;;;;;;5.75;2.60;;;;;;;;;;4961214;29;20032;-59
2024/01/08 13:56:50;;;;;;;5.27;2.60;;;;;;;;;;4955972;29;20036;-57
2024/01/08 13:59:15;;;;;;;7.85;3.55;;;;;;;;;;4957453;29;20028;-58
2024/01/08 14:01:40;;;;;;;6.10;2.80;;;;;;;;;;4958702;29;20036;-59
2024/01/08 14:04:07;;;;;;;5.57;2.53;;;;;;;;;;4965934;29;20039;-60
2024/01/08 14:06:33;;;;;;;8.27;3.25;;;;;;;;;;4957455;29;20040;-58
2024/01/08 14:08:58;;;;;;;3.90;2.00;;;;;;;;;;4958915;29;20043;-59
2024/01/08 14:11:24;;;;;;;6.13;2.80;;;;;;;;;;4959102;29;20039;-58
2024/01/08 14:13:49;;;;;;;6.15;2.95;;;;;;;;;;4961013;29;20046;-57
2024/01/08 14:16:15;;;;;;;5.83;2.87;;;;;;;;;;4962836;29;20032;-58
2024/01/08 14:18:40;;;;;;;5.75;2.72;;;;;;;;;;4959265;29;20270;-55
2024/01/08 14:21:05;;;;;;;4.17;2.73;;;;;;;;;;4961011;29;20043;-59
2024/01/08 14:23:31;;;;;;;5.75;2.28;;;;;;;;;;4962142;29;20031;-58
2024/01/08 14:25:57;;;;;;;5.70;2.72;;;;;;;;;;4965200;29;20042;-58
2024/01/08 14:28:23;;;;;;;3.78;2.40;;;;;;;;;;4959821;29;20036;-58
2024/01/08 14:30:49;;;;;;;5.55;2.55;;;;;;;;;;4967748;29;20055;-59